Time;durP1;ratioP1;P1;durP2;ratioP2;P2;SDS_P1;SDS_P2;PMS_P1;PMS_P2;Temp;Humidity;BMP_temperature;BMP_pressure;BME280_temperature;BME280_humidity;BME280_pressure;Samples;Min_cycle;Max_cycle;Signal;HPM_P1;HPM_P2
2023/06/22 00:01:23;;;;;;;11.00;8.18;;;22.90;78.50;;;24.62;53.78;97647.44;5082387;28;20493;-40
2023/06/22 00:03:51;;;;;;;9.68;7.18;;;22.80;78.60;;;24.60;53.74;97657.72;5079273;28;20550;-40
2023/06/22 00:06:19;;;;;;;9.63;7.10;;;22.80;78.50;;;24.58;54.08;97654.44;5079895;28;20041;-40
2023/06/22 00:08:47;;;;;;;9.25;8.23;;;22.90;78.30;;;24.56;54.06;97645.72;5082945;28;20048;-40
2023/06/22 00:11:14;;;;;;;16.52;7.82;;;22.90;78.20;;;24.51;54.10;97640.22;5083262;28;20051;-40
2023/06/22 00:13:42;;;;;;;9.73;8.55;;;22.80;78.50;;;24.50;54.26;97644.78;5053085;28;20401;-40
2023/06/22 00:16:10;;;;;;;10.52;8.35;;;22.70;78.90;;;24.45;54.31;97646.63;5066067;28;20040;-41
2023/06/22 00:18:37;;;;;;;11.40;8.13;;;22.70;79.20;;;24.40;54.43;97644.66;5078159;28;20114;-40
2023/06/22 00:21:06;;;;;;;9.40;8.07;;;22.80;79.00;;;24.38;54.44;97649.53;5052743;28;20044;-40
2023/06/22 00:23:34;;;;;;;9.80;8.35;;;22.70;79.20;;;24.37;54.52;97645.16;5080646;28;20044;-40
2023/06/22 00:26:02;;;;;;;12.05;7.88;;;22.60;79.50;;;24.29;54.77;97646.41;5059250;28;20059;-41
2023/06/22 00:28:30;;;;;;;12.52;7.70;;;22.70;79.70;;;24.29;54.77;97651.84;5054296;28;20036;-41
2023/06/22 00:30:58;;;;;;;10.50;8.52;;;22.70;79.60;;;24.32;54.74;97658.69;5073001;28;20388;-41
2023/06/22 00:33:26;;;;;;;8.63;7.68;;;22.70;79.40;;;24.32;54.80;97651.34;5082375;28;20051;-41
2023/06/22 00:35:54;;;;;;;10.65;9.43;;;22.70;79.50;;;24.32;54.76;97642.38;5052398;28;20044;-40
2023/06/22 00:38:21;;;;;;;9.65;8.07;;;22.70;79.10;;;24.34;54.71;97640.22;5078925;28;20032;-40
2023/06/22 00:40:49;;;;;;;11.68;8.15;;;22.70;79.50;;;24.32;54.75;97655.97;5064501;28;20059;-41
2023/06/22 00:43:17;;;;;;;10.23;8.15;;;22.70;79.70;;;24.30;54.78;97669.00;5082169;28;20047;-41
2023/06/22 00:45:44;;;;;;;8.95;7.57;;;22.60;79.90;;;24.27;54.65;97688.50;5079334;28;20048;-41
2023/06/22 00:48:13;;;;;;;9.13;7.93;;;22.50;80.60;;;24.25;55.01;97677.88;5052193;28;20559;-41
2023/06/22 00:50:41;;;;;;;10.35;8.15;;;22.50;80.70;;;24.28;55.04;97682.00;5028221;28;20554;-41
2023/06/22 00:53:09;;;;;;;10.25;8.48;;;22.60;80.50;;;24.30;55.04;97720.69;5070649;28;20047;-41
2023/06/22 00:55:46;;;;;;;10.23;7.63;;;22.70;80.30;;;24.31;54.89;97742.19;5050278;28;20051;-41
2023/06/22 00:58:14;;;;;;;10.30;7.70;;;22.70;80.20;;;24.26;55.07;97752.97;5078435;28;20033;-41
2023/06/22 01:00:42;;;;;;;9.35;8.45;;;22.60;80.10;;;24.02;55.65;97748.75;5081534;28;20048;-41
2023/06/22 01:03:10;;;;;;;10.95;7.72;;;22.30;81.70;;;23.88;55.94;97723.78;5040452;28;20041;-41
2023/06/22 01:05:40;;;;;;;13.30;8.52;;;22.10;85.50;;;23.77;56.19;97711.88;5052116;28;20053;-41
2023/06/22 01:08:41;;;;;;;9.07;8.18;;;21.80;86.30;;;23.72;56.19;97706.34;5051682;28;20048;-41
2023/06/22 01:11:22;;;;;;;11.75;9.43;;;21.80;87.70;;;23.74;56.39;97696.88;5032819;28;20052;-41
2023/06/22 01:14:56;;;;;;;10.40;8.20;;;21.90;88.50;;;23.73;56.27;97683.50;5042100;28;20051;-41
2023/06/22 01:17:26;;;;;;;12.55;8.07;;;21.90;88.50;;;23.76;56.33;97675.69;4991791;28;20506;-41
2023/06/22 01:19:55;;;;;;;12.68;7.35;;;22.00;87.70;;;23.76;56.55;97672.97;5050636;28;20059;-41
2023/06/22 01:22:29;;;;;;;10.80;9.15;;;22.00;87.60;;;23.75;56.46;97695.00;5060549;28;20049;-41
2023/06/22 01:25:08;;;;;;;;;;;22.00;87.40;;;23.73;56.04;97689.78;5064598;28;20052;-41
2023/06/22 01:27:56;;;;;;;11.70;9.30;;;21.90;88.50;;;23.68;56.17;97675.28;5058743;28;20311;-41
2023/06/22 01:30:26;;;;;;;10.73;8.27;;;21.80;88.80;;;23.65;56.23;97679.34;5060838;28;20044;-41
2023/06/22 01:32:57;;;;;;;11.45;8.77;;;21.80;88.50;;;23.64;56.46;97677.66;5063904;28;20044;-41
2023/06/22 01:35:26;;;;;;;10.00;8.65;;;21.90;88.30;;;23.64;56.44;97672.22;5039723;28;20045;-41
2023/06/22 01:37:54;;;;;;;9.75;8.27;;;21.90;88.30;;;23.64;56.71;97669.53;5085828;28;20036;-41
2023/06/22 01:40:23;;;;;;;13.57;8.35;;;21.90;88.20;;;23.64;56.88;97664.09;5042866;28;20050;-41
2023/06/22 01:42:52;;;;;;;10.75;8.50;;;21.90;88.10;;;23.65;56.84;97668.47;5063873;28;20040;-41
2023/06/22 01:45:20;;;;;;;11.00;8.88;;;21.90;88.20;;;23.66;56.69;97670.09;5048519;28;20493;-41
2023/06/22 01:47:48;;;;;;;10.75;8.90;;;22.00;88.00;;;23.63;56.65;97678.72;5054875;28;20052;-40
2023/06/22 01:50:16;;;;;;;10.48;9.38;;;21.90;88.00;;;23.55;56.71;97679.97;5067612;28;20044;-40
2023/06/22 01:52:44;;;;;;;10.13;8.98;;;21.70;88.80;;;23.51;56.84;97683.41;5083342;28;20051;-40
2023/06/22 01:55:11;;;;;;;14.25;10.32;;;21.70;89.30;;;23.50;57.14;97685.31;5055423;28;20041;-40
2023/06/22 01:57:40;;;;;;;15.57;9.35;;;21.70;89.80;;;23.49;56.92;97680.94;5045971;28;20484;-40
2023/06/22 02:00:13;;;;;;;12.02;9.52;;;21.70;89.90;;;23.48;57.06;97683.91;5055596;28;20044;-40
2023/06/22 02:03:08;;;;;;;11.77;9.15;;;21.70;89.90;;;23.46;57.11;97684.16;5058671;28;20048;-40
2023/06/22 02:05:54;;;;;;;12.05;8.60;;;21.70;90.60;;;23.49;57.36;97697.22;5058632;28;20051;-40
2023/06/22 02:08:32;;;;;;;13.50;9.45;;;21.70;90.00;;;23.47;56.97;97698.53;5041273;28;20045;-40
2023/06/22 02:11:02;;;;;;;11.20;8.90;;;21.70;90.30;;;23.45;57.15;97700.69;5048044;28;20044;-40
2023/06/22 02:13:31;;;;;;;11.38;9.15;;;21.70;90.10;;;23.41;57.15;97692.19;5039717;28;20041;-40
2023/06/22 02:16:00;;;;;;;12.07;8.32;;;21.70;90.20;;;23.37;57.26;97691.03;5062629;28;20056;-40
2023/06/22 02:18:28;;;;;;;14.63;9.52;;;21.70;89.90;;;23.34;57.30;97705.09;5055072;28;20051;-40
2023/06/22 02:20:55;;;;;;;14.68;9.73;;;21.60;89.80;;;23.29;57.32;97697.66;5055774;28;20032;-40
2023/06/22 02:23:23;;;;;;;9.85;8.65;;;21.60;90.20;;;23.28;57.31;97681.63;5081754;28;20044;-40
2023/06/22 02:25:50;;;;;;;11.27;8.07;;;21.60;90.40;;;23.28;57.85;97689.75;5057390;28;20047;-40
2023/06/22 02:28:18;;;;;;;8.82;7.40;;;21.60;90.50;;;23.28;57.66;97693.28;5060126;28;20044;-40
2023/06/22 02:30:46;;;;;;;10.57;8.38;;;21.60;90.70;;;23.28;57.52;97687.03;5083580;28;20425;-40
2023/06/22 02:33:13;;;;;;;11.52;8.43;;;21.60;90.60;;;23.26;57.73;97670.16;5085171;28;20388;-40
2023/06/22 02:35:45;;;;;;;10.77;8.07;;;21.60;91.80;;;23.25;57.68;97668.53;5058074;28;20044;-40
2023/06/22 02:38:14;;;;;;;9.40;7.80;;;21.50;91.10;;;23.24;57.71;97672.31;5084729;28;20032;-40
2023/06/22 02:40:42;;;;;;;15.20;9.13;;;21.50;91.20;;;23.25;57.82;97668.53;5058364;28;20068;-40
2023/06/22 02:43:10;;;;;;;16.60;7.72;;;21.50;91.00;;;23.23;57.53;97673.38;5084780;28;20044;-40
2023/06/22 02:45:37;;;;;;;10.35;7.55;;;21.50;90.80;;;23.19;57.45;97675.75;5057877;28;20059;-40
2023/06/22 02:48:06;;;;;;;11.80;8.77;;;21.40;91.20;;;23.16;57.84;97668.06;5065462;28;20066;-40
2023/06/22 02:50:34;;;;;;;9.73;7.35;;;21.40;91.70;;;23.14;58.07;97657.44;5058238;28;20036;-40
2023/06/22 02:53:02;;;;;;;8.90;7.43;;;21.30;92.30;;;23.12;57.95;97669.63;5062069;28;20049;-40
2023/06/22 02:55:35;;;;;;;11.87;8.67;;;21.30;92.70;;;23.07;57.96;97666.81;5054592;28;20131;-40
2023/06/22 02:58:04;;;;;;;9.45;7.57;;;21.20;93.70;;;23.02;58.30;97656.66;5061150;28;20044;-40
2023/06/22 03:00:35;;;;;;;10.13;8.68;;;21.20;94.40;;;23.03;58.02;97665.63;5054185;28;20044;-40
2023/06/22 03:03:03;;;;;;;10.18;8.25;;;21.20;94.80;;;23.00;58.33;97670.47;5065871;28;20496;-41
2023/06/22 03:05:32;;;;;;;10.05;7.95;;;21.30;94.50;;;22.97;58.00;97665.53;5057687;28;20047;-40
2023/06/22 03:08:00;;;;;;;9.73;8.73;;;21.20;94.50;;;22.94;58.07;97666.00;5045715;28;20047;-40
2023/06/22 03:10:31;;;;;;;10.75;8.52;;;21.20;94.70;;;22.85;58.12;97662.00;5062537;28;20051;-40
2023/06/22 03:12:59;;;;;;;10.82;8.32;;;21.00;95.60;;;22.81;58.66;97658.13;5054309;28;20049;-41
2023/06/22 03:15:29;;;;;;;15.32;9.45;;;21.00;96.60;;;22.79;58.67;97650.22;5054118;28;20488;-40
2023/06/22 03:17:57;;;;;;;11.73;8.63;;;21.00;97.20;;;22.78;58.67;97650.47;5053330;28;20041;-41
2023/06/22 03:20:26;;;;;;;11.30;7.82;;;20.90;97.60;;;22.77;58.38;97652.34;5080001;28;20040;-40
2023/06/22 03:22:54;;;;;;;9.55;7.85;;;21.00;97.50;;;22.74;58.67;97647.41;5056558;28;20493;-40
2023/06/22 03:25:23;;;;;;;11.10;9.20;;;21.00;97.70;;;22.74;58.67;97638.41;5059306;28;20056;-40
2023/06/22 03:27:51;;;;;;;11.23;8.35;;;21.00;98.00;;;22.72;58.53;97635.97;5055367;28;20052;-40
2023/06/22 03:30:18;;;;;;;10.82;8.25;;;20.90;98.30;;;22.73;58.98;97637.59;5060181;28;20044;-41
2023/06/22 03:32:46;;;;;;;11.43;7.82;;;21.00;98.50;;;22.73;58.68;97643.03;5055534;28;20534;-41
2023/06/22 03:35:14;;;;;;;15.70;8.43;;;21.00;98.20;;;22.74;58.85;97633.00;5083782;28;20043;-41
2023/06/22 03:37:42;;;;;;;10.50;9.10;;;21.00;98.30;;;22.75;58.98;97642.81;5055359;28;20366;-41
2023/06/22 03:40:11;;;;;;;9.68;7.78;;;21.10;98.40;;;22.76;59.10;97633.56;5065295;28;20404;-41
2023/06/22 03:42:38;;;;;;;12.27;9.02;;;21.10;98.50;;;22.76;58.75;97639.84;5056928;28;20096;-41
2023/06/22 03:45:07;;;;;;;9.77;7.85;;;21.10;98.30;;;22.76;59.18;97633.56;5083440;28;20106;-41
2023/06/22 03:47:34;;;;;;;9.82;8.07;;;21.10;98.30;;;22.76;59.01;97639.84;5056487;28;20127;-42
2023/06/22 03:50:03;;;;;;;10.48;8.80;;;21.10;98.30;;;22.78;58.85;97645.03;5080122;28;20036;-41
2023/06/22 03:52:31;;;;;;;10.50;8.43;;;21.10;98.50;;;22.77;59.01;97635.25;5080657;28;20503;-41
2023/06/22 03:54:59;;;;;;;11.43;8.18;;;21.10;98.50;;;22.77;59.22;97636.06;5082802;28;20074;-41
2023/06/22 03:57:26;;;;;;;10.93;8.32;;;21.10;98.10;;;22.79;59.01;97628.50;5078921;28;20380;-41
2023/06/22 03:59:57;;;;;;;10.65;8.35;;;21.10;98.00;;;22.80;59.21;97634.78;5081242;28;20048;-42
2023/06/22 04:02:25;;;;;;;11.25;8.00;;;21.10;98.30;;;22.78;59.05;97629.59;5079910;28;20048;-41
2023/06/22 04:04:52;;;;;;;9.90;7.88;;;21.10;98.40;;;22.78;58.82;97629.59;5081596;28;20045;-41
2023/06/22 04:07:20;;;;;;;10.70;7.70;;;21.00;98.50;;;22.77;59.03;97633.34;5082669;28;20044;-41
2023/06/22 04:09:48;;;;;;;13.10;7.78;;;21.10;99.00;;;22.78;59.23;97636.91;5081746;28;20055;-41
2023/06/22 04:12:15;;;;;;;9.50;8.27;;;21.10;99.30;;;22.79;59.06;97630.41;5079743;28;20396;-41
2023/06/22 04:14:43;;;;;;;11.52;8.10;;;21.00;99.10;;;22.80;59.09;97630.16;5053209;28;20052;-41
2023/06/22 04:17:14;;;;;;;10.98;8.63;;;21.10;99.20;;;22.82;59.07;97632.66;5082636;28;20518;-41
2023/06/22 04:19:41;;;;;;;10.10;8.43;;;21.10;99.10;;;22.84;59.22;97621.53;5082515;28;20044;-41
2023/06/22 04:22:10;;;;;;;9.75;7.25;;;21.20;98.90;;;22.87;59.20;97618.34;5053512;28;20044;-41
2023/06/22 04:24:37;;;;;;;10.68;8.63;;;21.20;98.80;;;22.87;59.08;97616.44;5079655;28;20048;-41
2023/06/22 04:27:05;;;;;;;12.50;8.38;;;21.20;99.00;;;22.88;59.32;97623.53;5082560;28;20046;-41
2023/06/22 04:29:33;;;;;;;12.82;8.90;;;21.20;99.00;;;22.89;59.08;97619.72;5057664;28;20507;-40
2023/06/22 04:32:05;;;;;;;9.73;8.05;;;21.20;99.30;;;22.90;59.05;97620.59;5081619;28;20052;-41
2023/06/22 04:34:32;;;;;;;10.80;8.48;;;21.20;99.30;;;22.90;59.18;97607.84;5082786;28;20088;-41
2023/06/22 04:37:00;;;;;;;10.82;8.32;;;21.20;99.60;;;22.91;59.45;97617.59;5079767;28;20044;-41
2023/06/22 04:39:28;;;;;;;11.93;8.43;;;21.30;99.50;;;22.95;59.36;97612.53;5079149;28;20028;-41
2023/06/22 04:42:00;;;;;;;11.23;9.63;;;21.30;99.30;;;22.96;59.33;97608.75;5081141;28;20044;-41
2023/06/22 04:44:27;;;;;;;9.40;8.25;;;21.30;99.20;;;22.98;59.40;97604.72;5082928;28;20040;-41
2023/06/22 04:47:00;;;;;;;12.65;8.20;;;21.40;99.30;;;22.99;59.57;97609.09;5080817;28;20047;-41
2023/06/22 04:49:32;;;;;;;14.45;8.43;;;21.40;99.20;;;23.02;59.45;97598.81;5052837;28;20045;-41
2023/06/22 04:52:02;;;;;;;9.68;7.75;;;21.40;99.30;;;23.04;59.43;97599.44;5060436;28;20063;-41
2023/06/22 04:54:32;;;;;;;10.32;8.35;;;21.40;99.50;;;23.04;59.40;97597.53;5079478;28;20055;-41
2023/06/22 04:57:09;;;;;;;11.35;8.77;;;21.40;99.20;;;23.06;59.81;97600.84;5054557;28;20060;-49
2023/06/22 04:59:38;;;;;;;12.07;8.75;;;21.50;99.10;;;23.09;59.62;97585.94;5082557;28;20055;-41
2023/06/22 05:02:07;;;;;;;12.82;9.40;;;21.60;98.60;;;23.10;59.80;97587.59;5078827;28;20076;-41
2023/06/22 05:04:41;;;;;;;10.60;8.32;;;21.60;98.40;;;23.13;59.59;97584.41;5078744;28;20044;-40
2023/06/22 05:07:09;;;;;;;12.93;9.02;;;21.70;98.30;;;23.16;59.83;97592.06;5082301;28;20043;-40
2023/06/22 05:09:37;;;;;;;10.80;8.90;;;21.60;98.60;;;23.20;59.78;97585.06;5082258;28;20052;-40
2023/06/22 05:12:07;;;;;;;13.57;9.40;;;21.60;98.40;;;23.17;59.72;97580.13;5079340;28;20068;-40
2023/06/22 05:14:37;;;;;;;13.60;8.48;;;21.80;97.80;;;23.22;59.75;97585.63;5078758;28;20052;-41
2023/06/22 05:17:13;;;;;;;11.32;9.20;;;21.80;97.80;;;23.26;59.48;97586.78;5080822;28;20052;-46
2023/06/22 05:19:44;;;;;;;15.25;9.75;;;21.80;97.90;;;23.29;59.65;97583.59;5058091;28;20045;-41
2023/06/22 05:22:13;;;;;;;16.95;10.18;;;21.80;98.20;;;23.29;59.72;97582.78;5053151;28;20043;-41
2023/06/22 05:24:40;;;;;;;13.18;9.13;;;21.90;98.00;;;23.28;59.92;97581.94;5078931;28;20055;-41
2023/06/22 05:27:09;;;;;;;11.65;8.80;;;22.00;97.20;;;23.28;59.67;97583.84;5081800;28;20043;-41
2023/06/22 05:29:37;;;;;;;12.77;9.38;;;22.00;97.00;;;23.31;59.76;97570.59;5081644;28;20046;-41
2023/06/22 05:32:06;;;;;;;12.93;11.25;;;22.00;96.90;;;23.37;59.60;97568.81;5055989;28;20055;-41
2023/06/22 05:34:34;;;;;;;12.25;9.48;;;22.10;96.90;;;23.42;59.65;97571.63;5057297;28;20060;-41
2023/06/22 05:37:02;;;;;;;10.23;9.13;;;22.10;96.40;;;23.47;59.43;97574.41;5080354;28;20059;-41
2023/06/22 05:39:30;;;;;;;13.23;9.95;;;22.10;96.30;;;23.49;59.71;97580.41;5081905;28;20044;-41
2023/06/22 05:41:57;;;;;;;10.63;9.52;;;22.10;96.10;;;23.52;59.58;97574.50;5080426;28;20040;-41
2023/06/22 05:44:25;;;;;;;14.38;9.07;;;22.20;96.00;;;23.54;59.57;97574.25;5051922;28;20052;-41
2023/06/22 05:46:53;;;;;;;10.13;8.60;;;22.20;95.60;;;23.55;59.63;97574.00;5078932;28;20138;-41
2023/06/22 05:49:22;;;;;;;13.00;9.25;;;22.30;95.20;;;23.60;59.27;97570.53;5081738;28;20047;-41
2023/06/22 05:51:49;;;;;;;10.30;9.20;;;22.30;94.80;;;23.66;59.09;97563.31;5081760;28;20067;-41
2023/06/22 05:54:17;;;;;;;9.80;8.80;;;22.30;94.40;;;23.67;59.15;97567.66;5078625;28;20041;-45
2023/06/22 05:56:45;;;;;;;14.57;9.18;;;22.50;93.70;;;23.70;59.14;97569.88;5079305;28;20059;-42
2023/06/22 05:59:13;;;;;;;9.70;8.70;;;22.40;93.10;;;23.72;59.10;97565.03;5081753;28;20511;-43
2023/06/22 06:01:40;;;;;;;10.27;8.63;;;22.50;92.70;;;23.68;59.09;97561.97;5083568;28;20048;-41
2023/06/22 06:04:08;;;;;;;13.43;10.23;;;22.50;92.40;;;23.72;59.08;97559.59;5083336;28;20047;-42
2023/06/22 06:06:37;;;;;;;13.40;8.65;;;22.60;92.40;;;23.76;59.05;97564.28;5050209;28;20041;-41
2023/06/22 06:09:07;;;;;;;13.50;9.38;;;22.60;92.00;;;23.80;58.76;97564.63;5074693;28;20083;-42
2023/06/22 06:11:35;;;;;;;11.95;8.90;;;22.60;91.00;;;23.81;58.71;97560.84;5086318;28;20035;-41
2023/06/22 06:14:02;;;;;;;11.68;8.80;;;22.70;90.50;;;23.81;58.68;97563.56;5084171;28;20052;-41
2023/06/22 06:16:30;;;;;;;10.38;8.80;;;22.70;89.70;;;23.85;58.56;97563.91;5082081;28;20490;-42
2023/06/22 06:18:58;;;;;;;10.70;8.50;;;22.70;89.50;;;23.88;58.47;97558.75;5082640;28;20067;-42
2023/06/22 06:21:26;;;;;;;9.90;8.50;;;22.70;89.10;;;23.94;58.44;97557.78;5062976;28;20044;-41
2023/06/22 06:23:58;;;;;;;9.48;8.48;;;22.70;89.10;;;24.00;58.20;97561.41;5056981;28;20051;-39
2023/06/22 06:26:29;;;;;;;15.55;9.73;;;22.80;88.50;;;24.04;58.37;97556.28;5085499;28;20051;-44
2023/06/22 06:28:59;;;;;;;11.90;8.93;;;22.90;87.90;;;24.10;58.08;97561.56;5084712;28;20118;-41
2023/06/22 06:31:29;;;;;;;14.13;9.77;;;22.90;87.30;;;24.16;57.95;97557.00;5056296;28;20043;-40
2023/06/22 06:33:57;;;;;;;10.43;8.05;;;23.00;86.70;;;24.25;57.92;97566.34;5082250;28;20522;-40
2023/06/22 06:36:24;;;;;;;11.00;8.40;;;23.00;86.50;;;24.34;57.74;97566.75;5084811;28;20048;-42
2023/06/22 06:38:52;;;;;;;9.93;8.07;;;23.10;85.90;;;24.40;57.32;97582.06;5084857;28;20051;-41
2023/06/22 06:41:20;;;;;;;10.30;7.25;;;23.20;85.20;;;24.44;57.13;97575.06;5065061;28;20044;-41
2023/06/22 06:43:48;;;;;;;10.98;8.07;;;23.20;84.30;;;24.50;56.94;97579.47;5083788;28;20067;-41
2023/06/22 06:46:16;;;;;;;11.80;8.32;;;23.30;83.70;;;24.56;56.98;97574.97;5063530;28;20040;-41
2023/06/22 06:48:44;;;;;;;13.00;7.88;;;23.40;83.30;;;24.59;56.83;97581.81;5072074;28;20056;-40
2023/06/22 06:51:11;;;;;;;8.38;7.55;;;23.40;82.80;;;24.64;56.55;97577.25;5075385;28;20408;-41
2023/06/22 06:53:39;;;;;;;9.10;7.20;;;23.40;82.10;;;24.67;56.26;97565.03;5078315;28;20048;-41
2023/06/22 06:56:07;;;;;;;9.02;6.60;;;23.50;81.50;;;24.70;56.23;97575.41;5071753;28;20048;-40
2023/06/22 06:58:34;;;;;;;10.13;5.70;;;23.50;80.80;;;24.73;56.25;97561.28;5074972;28;20523;-41
2023/06/22 07:01:03;;;;;;;9.63;7.13;;;23.60;80.50;;;24.77;56.23;97549.63;5082383;28;20055;-41
2023/06/22 07:03:32;;;;;;;10.40;7.03;;;23.60;80.20;;;24.84;55.99;97545.91;5084684;28;20040;-40
2023/06/22 07:06:00;;;;;;;9.77;7.40;;;23.70;80.00;;;24.88;56.03;97549.75;5083977;28;20098;-41
2023/06/22 07:08:28;;;;;;;9.93;7.60;;;23.80;79.20;;;24.89;55.69;97548.66;5080318;28;20036;-41
2023/06/22 07:10:56;;;;;;;10.18;6.63;;;23.80;78.90;;;24.92;55.72;97556.34;5081081;28;20045;-41
2023/06/22 07:13:24;;;;;;;8.82;7.68;;;23.80;78.40;;;24.99;55.61;97547.94;5071696;28;20041;-41
2023/06/22 07:15:51;;;;;;;13.25;7.45;;;23.90;78.20;;;25.06;55.77;97540.41;5081001;28;20067;-41
2023/06/22 07:18:19;;;;;;;8.27;6.57;;;23.90;78.10;;;25.10;55.22;97534.16;5083414;28;20047;-41
2023/06/22 07:20:47;;;;;;;7.63;6.82;;;24.10;78.70;;;25.14;55.10;97537.22;5059488;28;20075;-41
2023/06/22 07:23:15;;;;;;;8.73;6.82;;;24.00;77.00;;;25.18;54.68;97524.72;5082720;28;20048;-41
2023/06/22 07:25:43;;;;;;;8.68;6.53;;;24.10;76.20;;;25.22;54.57;97520.44;5084020;28;20400;-41
2023/06/22 07:28:11;;;;;;;8.60;6.25;;;24.10;75.80;;;25.26;53.99;97520.72;5082515;28;20044;-45
2023/06/22 07:30:38;;;;;;;8.82;6.28;;;24.10;75.00;;;25.30;54.16;97517.25;5080054;28;20052;-41
2023/06/22 07:33:08;;;;;;;8.38;5.90;;;24.20;74.40;;;25.35;53.70;97511.00;5081466;28;20424;-41
2023/06/22 07:35:36;;;;;;;7.47;6.07;;;24.30;73.90;;;25.43;53.63;97504.25;5082044;28;20052;-41
2023/06/22 07:38:04;;;;;;;10.18;6.25;;;24.30;73.50;;;25.50;53.41;97502.97;5082126;28;20051;-41
2023/06/22 07:40:33;;;;;;;7.70;6.53;;;24.50;73.30;;;25.58;53.40;97501.66;5054663;28;20036;-42
2023/06/22 07:43:03;;;;;;;9.43;6.28;;;24.60;72.50;;;25.66;53.29;97495.69;5054183;28;20048;-42
2023/06/22 07:45:33;;;;;;;9.02;6.63;;;24.60;72.30;;;25.72;52.75;97491.09;5083281;28;20514;-43
2023/06/22 07:48:01;;;;;;;7.90;6.55;;;24.70;71.80;;;25.77;52.85;97502.06;5082937;28;20396;-42
2023/06/22 07:50:29;;;;;;;9.05;5.90;;;24.70;72.10;;;25.83;53.27;97494.72;5080773;28;20044;-41
2023/06/22 07:52:57;;;;;;;9.18;5.90;;;24.80;71.90;;;25.87;53.25;97496.66;5080157;28;20063;-41
2023/06/22 07:55:25;;;;;;;11.00;5.50;;;24.80;71.90;;;25.91;52.82;97505.16;5046639;28;20045;-40
2023/06/22 07:57:53;;;;;;;6.97;6.10;;;24.90;71.50;;;25.97;52.26;97514.19;5079103;28;20049;-41
2023/06/22 08:00:21;;;;;;;7.97;6.00;;;24.90;70.90;;;26.00;52.61;97511.78;5082566;28;20048;-40
2023/06/22 08:02:48;;;;;;;8.15;5.95;;;24.90;70.70;;;26.04;51.64;97512.06;5083470;28;20499;-40
2023/06/22 08:05:17;;;;;;;11.25;5.70;;;24.90;69.80;;;26.07;52.13;97514.25;5049256;28;20044;-40
2023/06/22 08:07:49;;;;;;;10.95;6.20;;;25.00;69.90;;;26.12;51.85;97527.94;5083424;28;20142;-40
2023/06/22 08:10:19;;;;;;;8.52;5.85;;;25.10;69.90;;;26.17;51.67;97527.13;5080755;28;20055;-40
2023/06/22 08:12:47;;;;;;;11.63;6.28;;;25.10;69.50;;;26.20;52.09;97524.69;5079789;28;20048;-40
2023/06/22 08:15:15;;;;;;;10.07;6.25;;;25.20;69.60;;;26.29;51.61;97530.47;5081040;28;20421;-40
2023/06/22 08:17:44;;;;;;;8.38;6.40;;;25.30;69.30;;;26.42;51.42;97534.63;5081983;28;20056;-41
2023/06/22 08:20:12;;;;;;;9.07;7.10;;;25.40;68.80;;;26.52;50.75;97531.91;5081755;28;20062;-41
2023/06/22 08:22:41;;;;;;;8.98;6.15;;;25.60;67.40;;;26.58;50.33;97522.69;5079693;28;20053;-40
2023/06/22 08:25:10;;;;;;;8.38;5.07;;;25.60;66.30;;;26.67;50.29;97523.00;5053277;28;20521;-40
2023/06/22 08:27:38;;;;;;;7.78;6.05;;;25.80;65.90;;;26.76;49.97;97524.13;5082451;28;20056;-40
2023/06/22 08:30:07;;;;;;;9.13;5.65;;;25.90;65.50;;;26.86;49.72;97521.41;5082739;28;20040;-40
2023/06/22 08:32:35;;;;;;;9.63;6.10;;;26.00;65.00;;;26.94;49.72;97522.78;5079434;28;20039;-41
2023/06/22 08:35:03;;;;;;;9.75;6.28;;;26.10;64.60;;;27.01;49.64;97528.00;5079540;28;20523;-41
2023/06/22 08:37:31;;;;;;;9.63;5.55;;;26.10;64.40;;;27.07;49.69;97533.22;5052206;28;20048;-40
2023/06/22 08:40:05;;;;;;;10.90;6.65;;;26.20;64.20;;;27.15;49.26;97531.03;5078405;28;20439;-39
2023/06/22 08:42:32;;;;;;;13.60;6.32;;;26.20;63.80;;;27.18;49.03;97539.53;5071519;28;20404;-40
2023/06/22 08:45:00;;;;;;;7.13;6.22;;;26.30;64.50;;;27.22;48.61;97537.88;5053318;28;20043;-40
2023/06/22 08:47:29;;;;;;;7.80;5.88;;;26.30;64.20;;;27.28;48.57;97528.63;5051781;28;20040;-41
2023/06/22 08:49:56;;;;;;;9.38;6.15;;;26.30;63.20;;;27.33;48.70;97535.19;5053226;28;20408;-41
2023/06/22 08:52:24;;;;;;;8.05;6.32;;;26.40;62.90;;;27.36;48.35;97529.19;5080914;28;20504;-41
2023/06/22 08:54:52;;;;;;;10.40;6.22;;;26.40;62.90;;;27.40;48.50;97541.19;5058543;28;20056;-44
2023/06/22 08:57:21;;;;;;;9.02;7.07;;;26.40;62.70;;;27.43;48.25;97543.38;5080526;28;20051;-41
2023/06/22 08:59:48;;;;;;;7.30;5.35;;;26.50;62.70;;;27.47;48.43;97591.78;5058741;28;20083;-41
2023/06/22 09:02:16;;;;;;;9.85;6.82;;;26.50;62.20;;;27.40;48.13;97593.13;5079444;28;20044;-41
2023/06/22 09:04:45;;;;;;;8.18;6.55;;;26.40;62.20;;;27.44;48.49;97575.91;5082265;28;20044;-41
2023/06/22 09:07:13;;;;;;;10.02;6.40;;;26.30;61.80;;;27.47;48.82;97537.09;5082578;28;20155;-41
2023/06/22 09:09:41;;;;;;;10.65;7.82;;;26.40;63.90;;;27.57;48.00;97549.97;5082233;28;20058;-42
2023/06/22 09:12:09;;;;;;;8.35;6.18;;;26.50;62.90;;;27.65;47.86;97527.53;5083239;28;20040;-41
2023/06/22 09:14:37;;;;;;;9.80;6.88;;;26.60;62.70;;;27.74;48.21;97511.38;5079895;28;20049;-41
2023/06/22 09:17:05;;;;;;;10.88;6.28;;;26.70;62.50;;;27.82;48.15;97510.00;5079729;28;20044;-41
2023/06/22 09:19:50;;;;;;;9.68;5.47;;;26.90;62.20;;;27.83;48.15;97496.03;5043849;28;20040;-41
2023/06/22 09:22:36;;;;;;;14.50;6.18;;;26.90;61.40;;;27.92;47.79;97499.09;5043893;28;20052;-41
2023/06/22 09:25:31;;;;;;;10.30;6.40;;;27.00;61.80;;;28.01;47.85;97483.72;5074385;28;20423;-41
2023/06/22 09:27:59;;;;;;;10.02;6.80;;;27.00;62.00;;;28.04;47.78;97474.16;5074632;28;20114;-41
2023/06/22 09:30:26;;;;;;;10.43;6.80;;;27.10;61.90;;;28.04;47.83;97464.03;5073639;28;20105;-41
2023/06/22 09:32:54;;;;;;;9.70;6.72;;;27.10;61.80;;;28.06;47.43;97463.75;5079022;28;20060;-41
2023/06/22 09:35:22;;;;;;;9.00;6.45;;;27.10;61.80;;;28.06;47.63;97463.75;5079626;28;20052;-41
2023/06/22 09:37:50;;;;;;;10.50;7.07;;;27.10;62.00;;;28.06;47.78;97475.50;5086916;28;20055;-41
2023/06/22 09:40:18;;;;;;;10.35;6.05;;;27.10;62.20;;;28.10;47.74;97472.22;5056342;28;20051;-41
2023/06/22 09:42:46;;;;;;;9.27;6.80;;;27.10;62.00;;;28.11;47.66;97466.47;5083733;28;20058;-41
2023/06/22 09:45:13;;;;;;;10.88;6.47;;;27.10;62.10;;;28.14;47.46;97460.44;5073392;28;20048;-41
2023/06/22 09:47:42;;;;;;;9.13;6.35;;;27.20;61.90;;;28.16;47.54;97460.97;5035101;28;20048;-41
2023/06/22 09:50:10;;;;;;;9.07;5.45;;;27.20;61.90;;;28.20;47.84;97451.09;5069882;28;20049;-41
2023/06/22 09:52:38;;;;;;;9.10;7.07;;;27.20;61.80;;;28.26;47.50;97463.66;5031168;28;20053;-39
2023/06/22 09:55:08;;;;;;;13.35;7.07;;;27.30;61.70;;;28.37;47.45;97458.97;5073035;28;20404;-40
2023/06/22 09:57:36;;;;;;;10.13;6.07;;;27.50;60.90;;;28.50;46.97;97463.00;5074647;28;20051;-40
2023/06/22 10:00:08;;;;;;;7.45;5.93;;;27.60;60.50;;;28.63;46.86;97461.59;5074559;28;20048;-42
2023/06/22 10:02:36;;;;;;;9.73;7.45;;;27.80;59.90;;;28.75;46.54;97461.25;5044859;28;20087;-41
2023/06/22 10:05:04;;;;;;;9.30;6.07;;;27.90;59.10;;;28.83;46.56;97464.22;5070978;28;20163;-41
2023/06/22 10:07:32;;;;;;;10.18;6.38;;;28.00;59.20;;;28.93;46.08;97468.00;5072307;28;20041;-41
2023/06/22 10:10:00;;;;;;;12.38;7.28;;;28.10;58.80;;;29.00;46.01;97454.78;5071191;28;20044;-41
2023/06/22 10:12:28;;;;;;;9.50;6.00;;;28.20;58.50;;;29.08;45.35;97461.56;5052978;28;20040;-41
2023/06/22 10:14:55;;;;;;;10.50;6.95;;;28.30;58.10;;;29.15;45.30;97434.69;5073208;28;20047;-40
2023/06/22 10:17:23;;;;;;;9.60;5.90;;;28.40;57.70;;;29.23;45.31;97426.66;5073990;28;20052;-40
2023/06/22 10:19:51;;;;;;;6.82;5.80;;;28.40;57.60;;;29.35;45.38;97439.16;5074405;28;20048;-41
2023/06/22 10:22:19;;;;;;;12.60;6.03;;;28.50;57.50;;;29.47;45.17;97436.03;5073035;28;20044;-40
2023/06/22 10:24:46;;;;;;;8.77;6.55;;;28.70;57.70;;;29.56;45.05;97429.63;5083737;28;20275;-40